sensor_id;sensor_type;location;lat;lon;timestamp;temperature;humidity
67275;DHT22;55463;52.324;5.122;2023-09-19T00:00:01;14.07;90.29
67275;DHT22;55463;52.324;5.122;2023-09-19T00:02:26;14.05;90.17
67275;DHT22;55463;52.324;5.122;2023-09-19T00:04:52;14.01;90.29
67275;DHT22;55463;52.324;5.122;2023-09-19T00:07:18;13.98;90.40
67275;DHT22;55463;52.324;5.122;2023-09-19T00:09:44;13.98;90.42
67275;DHT22;55463;52.324;5.122;2023-09-19T00:12:10;13.98;90.86
67275;DHT22;55463;52.324;5.122;2023-09-19T00:14:35;13.98;90.72
67275;DHT22;55463;52.324;5.122;2023-09-19T00:17:01;14.00;91.04
67275;DHT22;55463;52.324;5.122;2023-09-19T00:19:36;13.98;91.45
67275;DHT22;55463;52.324;5.122;2023-09-19T00:22:02;13.96;92.03
67275;DHT22;55463;52.324;5.122;2023-09-19T00:24:28;14.00;91.92
67275;DHT22;55463;52.324;5.122;2023-09-19T00:26:53;14.00;92.20
67275;DHT22;55463;52.324;5.122;2023-09-19T00:29:21;14.01;92.13
67275;DHT22;55463;52.324;5.122;2023-09-19T00:31:46;14.07;91.79
67275;DHT22;55463;52.324;5.122;2023-09-19T00:34:11;14.07;91.96
67275;DHT22;55463;52.324;5.122;2023-09-19T00:36:37;14.04;91.79
67275;DHT22;55463;52.324;5.122;2023-09-19T00:39:07;14.04;91.32
67275;DHT22;55463;52.324;5.122;2023-09-19T00:41:33;14.01;91.39
67275;DHT22;55463;52.324;5.122;2023-09-19T00:44:01;14.01;91.51
67275;DHT22;55463;52.324;5.122;2023-09-19T00:46:27;14.00;91.66
67275;DHT22;55463;52.324;5.122;2023-09-19T00:48:53;13.96;91.52
67275;DHT22;55463;52.324;5.122;2023-09-19T00:51:20;13.97;91.58
67275;DHT22;55463;52.324;5.122;2023-09-19T00:53:48;13.96;91.58
67275;DHT22;55463;52.324;5.122;2023-09-19T00:56:14;13.96;91.99
67275;DHT22;55463;52.324;5.122;2023-09-19T00:58:44;13.96;92.31
67275;DHT22;55463;52.324;5.122;2023-09-19T01:01:10;13.96;92.51
67275;DHT22;55463;52.324;5.122;2023-09-19T01:03:37;13.96;92.45
67275;DHT22;55463;52.324;5.122;2023-09-19T01:06:02;13.97;92.46
67275;DHT22;55463;52.324;5.122;2023-09-19T01:08:28;13.97;92.15
67275;DHT22;55463;52.324;5.122;2023-09-19T01:11:12;13.94;92.10
67275;DHT22;55463;52.324;5.122;2023-09-19T01:13:47;13.97;92.15
67275;DHT22;55463;52.324;5.122;2023-09-19T01:22:00;14.00;91.79
67275;DHT22;55463;52.324;5.122;2023-09-19T01:30:35;14.00;92.18
67275;DHT22;55463;52.324;5.122;2023-09-19T01:33:05;14.00;92.41
67275;DHT22;55463;52.324;5.122;2023-09-19T01:35:31;14.04;92.57
67275;DHT22;55463;52.324;5.122;2023-09-19T01:37:59;14.07;92.84
67275;DHT22;55463;52.324;5.122;2023-09-19T01:40:25;14.08;92.82
67275;DHT22;55463;52.324;5.122;2023-09-19T01:42:57;14.13;92.53
67275;DHT22;55463;52.324;5.122;2023-09-19T01:48:49;14.08;92.29
67275;DHT22;55463;52.324;5.122;2023-09-19T01:51:34;14.10;92.57
67275;DHT22;55463;52.324;5.122;2023-09-19T01:54:04;14.13;92.57
67275;DHT22;55463;52.324;5.122;2023-09-19T01:56:40;14.10;92.81
67275;DHT22;55463;52.324;5.122;2023-09-19T01:59:11;14.10;92.80
67275;DHT22;55463;52.324;5.122;2023-09-19T02:01:39;14.14;92.65
67275;DHT22;55463;52.324;5.122;2023-09-19T02:04:07;14.13;92.46
67275;DHT22;55463;52.324;5.122;2023-09-19T02:06:32;14.15;92.08
67275;DHT22;55463;52.324;5.122;2023-09-19T02:08:59;14.15;92.08
67275;DHT22;55463;52.324;5.122;2023-09-19T02:11:25;14.14;91.92
67275;DHT22;55463;52.324;5.122;2023-09-19T02:13:50;14.14;92.26
67275;DHT22;55463;52.324;5.122;2023-09-19T02:16:19;14.18;91.70
67275;DHT22;55463;52.324;5.122;2023-09-19T02:18:47;14.18;91.78
67275;DHT22;55463;52.324;5.122;2023-09-19T02:21:13;14.22;91.47
67275;DHT22;55463;52.324;5.122;2023-09-19T02:23:38;14.25;91.48
67275;DHT22;55463;52.324;5.122;2023-09-19T02:26:04;14.26;91.27
67275;DHT22;55463;52.324;5.122;2023-09-19T02:28:30;14.31;90.47
67275;DHT22;55463;52.324;5.122;2023-09-19T02:30:57;14.33;90.46
67275;DHT22;55463;52.324;5.122;2023-09-19T02:33:23;14.35;90.45
67275;DHT22;55463;52.324;5.122;2023-09-19T02:35:48;14.33;90.43
67275;DHT22;55463;52.324;5.122;2023-09-19T02:38:14;14.36;90.28
67275;DHT22;55463;52.324;5.122;2023-09-19T02:40:43;14.36;90.24
67275;DHT22;55463;52.324;5.122;2023-09-19T02:43:09;14.38;91.07
67275;DHT22;55463;52.324;5.122;2023-09-19T02:45:35;14.39;90.60
67275;DHT22;55463;52.324;5.122;2023-09-19T02:48:00;14.36;90.80
67275;DHT22;55463;52.324;5.122;2023-09-19T02:50:27;14.36;91.41
67275;DHT22;55463;52.324;5.122;2023-09-19T02:52:53;14.33;91.74
67275;DHT22;55463;52.324;5.122;2023-09-19T02:55:19;14.29;91.53
67275;DHT22;55463;52.324;5.122;2023-09-19T02:57:54;14.26;92.30
67275;DHT22;55463;52.324;5.122;2023-09-19T03:00:20;14.22;92.39
67275;DHT22;55463;52.324;5.122;2023-09-19T03:02:52;14.17;92.61
67275;DHT22;55463;52.324;5.122;2023-09-19T03:05:18;14.14;92.44
67275;DHT22;55463;52.324;5.122;2023-09-19T03:07:44;14.11;92.99
67275;DHT22;55463;52.324;5.122;2023-09-19T03:10:12;14.08;92.74
67275;DHT22;55463;52.324;5.122;2023-09-19T03:12:40;14.05;92.97
67275;DHT22;55463;52.324;5.122;2023-09-19T03:15:05;14.10;92.91
67275;DHT22;55463;52.324;5.122;2023-09-19T03:17:33;14.08;92.74
67275;DHT22;55463;52.324;5.122;2023-09-19T03:19:59;14.08;92.87
67275;DHT22;55463;52.324;5.122;2023-09-19T03:22:24;14.13;92.67
67275;DHT22;55463;52.324;5.122;2023-09-19T03:24:51;14.13;92.66
67275;DHT22;55463;52.324;5.122;2023-09-19T03:27:17;14.13;92.69
67275;DHT22;55463;52.324;5.122;2023-09-19T03:29:42;14.14;92.12
67275;DHT22;55463;52.324;5.122;2023-09-19T03:32:08;14.20;91.51
67275;DHT22;55463;52.324;5.122;2023-09-19T03:34:36;14.24;91.53
67275;DHT22;55463;52.324;5.122;2023-09-19T03:37:07;14.24;91.58
67275;DHT22;55463;52.324;5.122;2023-09-19T03:39:32;14.26;91.23
67275;DHT22;55463;52.324;5.122;2023-09-19T03:41:58;14.26;91.55
67275;DHT22;55463;52.324;5.122;2023-09-19T03:44:23;14.25;91.13
67275;DHT22;55463;52.324;5.122;2023-09-19T03:46:49;14.25;91.57
67275;DHT22;55463;52.324;5.122;2023-09-19T03:49:14;14.26;91.18
67275;DHT22;55463;52.324;5.122;2023-09-19T03:51:39;14.25;91.25
67275;DHT22;55463;52.324;5.122;2023-09-19T03:54:07;14.28;91.37
67275;DHT22;55463;52.324;5.122;2023-09-19T03:56:32;14.26;91.69
67275;DHT22;55463;52.324;5.122;2023-09-19T03:58:58;14.24;92.01
67275;DHT22;55463;52.324;5.122;2023-09-19T04:01:23;14.21;91.99
67275;DHT22;55463;52.324;5.122;2023-09-19T04:03:49;14.24;92.02
67275;DHT22;55463;52.324;5.122;2023-09-19T04:06:17;14.22;92.21
67275;DHT22;55463;52.324;5.122;2023-09-19T04:08:43;14.24;92.22
67275;DHT22;55463;52.324;5.122;2023-09-19T04:11:09;14.17;92.43
67275;DHT22;55463;52.324;5.122;2023-09-19T04:13:35;14.17;92.29
67275;DHT22;55463;52.324;5.122;2023-09-19T04:16:01;14.15;92.49
67275;DHT22;55463;52.324;5.122;2023-09-19T04:18:27;14.10;92.75
67275;DHT22;55463;52.324;5.122;2023-09-19T04:20:53;14.08;92.76
67275;DHT22;55463;52.324;5.122;2023-09-19T04:23:19;14.05;93.02
67275;DHT22;55463;52.324;5.122;2023-09-19T04:25:47;14.05;93.16
67275;DHT22;55463;52.324;5.122;2023-09-19T04:28:13;14.05;93.35
67275;DHT22;55463;52.324;5.122;2023-09-19T04:30:39;14.07;93.30
67275;DHT22;55463;52.324;5.122;2023-09-19T04:33:08;14.08;93.15
67275;DHT22;55463;52.324;5.122;2023-09-19T04:35:33;14.08;93.31
67275;DHT22;55463;52.324;5.122;2023-09-19T04:37:59;14.08;93.34
67275;DHT22;55463;52.324;5.122;2023-09-19T04:40:24;14.08;93.52
67275;DHT22;55463;52.324;5.122;2023-09-19T04:42:55;14.10;93.38
67275;DHT22;55463;52.324;5.122;2023-09-19T04:45:28;14.11;93.40
67275;DHT22;55463;52.324;5.122;2023-09-19T04:47:54;14.14;93.53
67275;DHT22;55463;52.324;5.122;2023-09-19T04:50:22;14.13;93.72
67275;DHT22;55463;52.324;5.122;2023-09-19T04:52:50;14.14;93.75
67275;DHT22;55463;52.324;5.122;2023-09-19T04:55:17;14.18;93.47
67275;DHT22;55463;52.324;5.122;2023-09-19T04:57:47;14.18;93.83
67275;DHT22;55463;52.324;5.122;2023-09-19T05:00:14;14.18;94.36
67275;DHT22;55463;52.324;5.122;2023-09-19T05:02:41;14.15;93.99
67275;DHT22;55463;52.324;5.122;2023-09-19T05:05:08;14.18;94.57
67275;DHT22;55463;52.324;5.122;2023-09-19T05:07:34;14.14;94.18
67275;DHT22;55463;52.324;5.122;2023-09-19T05:10:00;14.13;94.60
67275;DHT22;55463;52.324;5.122;2023-09-19T05:12:28;14.18;95.17
67275;DHT22;55463;52.324;5.122;2023-09-19T05:14:53;14.14;95.92
67275;DHT22;55463;52.324;5.122;2023-09-19T05:17:18;14.15;95.22
67275;DHT22;55463;52.324;5.122;2023-09-19T05:19:44;14.14;96.18
67275;DHT22;55463;52.324;5.122;2023-09-19T05:22:11;14.14;95.95
67275;DHT22;55463;52.324;5.122;2023-09-19T05:24:37;14.15;95.88
67275;DHT22;55463;52.324;5.122;2023-09-19T05:27:04;14.11;95.61
67275;DHT22;55463;52.324;5.122;2023-09-19T05:29:33;14.10;95.57
67275;DHT22;55463;52.324;5.122;2023-09-19T05:31:59;14.13;95.48
67275;DHT22;55463;52.324;5.122;2023-09-19T05:34:24;14.10;95.34
67275;DHT22;55463;52.324;5.122;2023-09-19T05:36:51;14.11;94.88
67275;DHT22;55463;52.324;5.122;2023-09-19T05:39:17;14.10;94.81
67275;DHT22;55463;52.324;5.122;2023-09-19T05:41:42;14.08;95.02
67275;DHT22;55463;52.324;5.122;2023-09-19T05:44:08;14.07;94.81
67275;DHT22;55463;52.324;5.122;2023-09-19T05:46:33;14.11;95.06
67275;DHT22;55463;52.324;5.122;2023-09-19T05:49:00;14.10;94.89
67275;DHT22;55463;52.324;5.122;2023-09-19T05:51:25;14.11;94.81
67275;DHT22;55463;52.324;5.122;2023-09-19T05:53:54;14.11;94.73
67275;DHT22;55463;52.324;5.122;2023-09-19T05:56:20;14.13;94.57
67275;DHT22;55463;52.324;5.122;2023-09-19T05:58:46;14.14;94.58
67275;DHT22;55463;52.324;5.122;2023-09-19T06:01:11;14.13;94.50
67275;DHT22;55463;52.324;5.122;2023-09-19T06:03:36;14.11;94.52
67275;DHT22;55463;52.324;5.122;2023-09-19T06:06:03;14.08;94.55
67275;DHT22;55463;52.324;5.122;2023-09-19T06:08:29;14.14;94.67
67275;DHT22;55463;52.324;5.122;2023-09-19T06:10:56;14.14;94.29
67275;DHT22;55463;52.324;5.122;2023-09-19T06:13:22;14.17;93.84
67275;DHT22;55463;52.324;5.122;2023-09-19T06:15:47;14.20;94.43
67275;DHT22;55463;52.324;5.122;2023-09-19T06:18:13;14.24;94.04
67275;DHT22;55463;52.324;5.122;2023-09-19T06:20:48;14.26;94.15
67275;DHT22;55463;52.324;5.122;2023-09-19T06:23:16;14.32;93.99
67275;DHT22;55463;52.324;5.122;2023-09-19T06:25:42;14.39;94.11
67275;DHT22;55463;52.324;5.122;2023-09-19T06:28:11;14.42;93.77
67275;DHT22;55463;52.324;5.122;2023-09-19T06:30:40;14.50;94.12
67275;DHT22;55463;52.324;5.122;2023-09-19T06:33:05;14.58;93.90
67275;DHT22;55463;52.324;5.122;2023-09-19T06:35:34;14.60;93.91
67275;DHT22;55463;52.324;5.122;2023-09-19T06:38:02;14.65;93.55
67275;DHT22;55463;52.324;5.122;2023-09-19T06:40:28;14.69;93.42
67275;DHT22;55463;52.324;5.122;2023-09-19T06:42:56;14.70;93.51
67275;DHT22;55463;52.324;5.122;2023-09-19T06:45:22;14.73;93.26
67275;DHT22;55463;52.324;5.122;2023-09-19T06:47:51;14.75;93.46
67275;DHT22;55463;52.324;5.122;2023-09-19T06:50:17;14.79;93.49
67275;DHT22;55463;52.324;5.122;2023-09-19T06:52:45;14.80;93.25
67275;DHT22;55463;52.324;5.122;2023-09-19T06:55:13;14.83;93.37
67275;DHT22;55463;52.324;5.122;2023-09-19T06:57:44;14.86;93.56
67275;DHT22;55463;52.324;5.122;2023-09-19T07:00:10;14.90;93.25
67275;DHT22;55463;52.324;5.122;2023-09-19T07:02:59;14.95;93.45
67275;DHT22;55463;52.324;5.122;2023-09-19T07:05:27;15.03;93.54
67275;DHT22;55463;52.324;5.122;2023-09-19T07:07:53;15.07;93.18
67275;DHT22;55463;52.324;5.122;2023-09-19T07:10:20;15.12;93.16
67275;DHT22;55463;52.324;5.122;2023-09-19T07:12:54;15.17;93.43
67275;DHT22;55463;52.324;5.122;2023-09-19T07:15:20;15.22;92.99
67275;DHT22;55463;52.324;5.122;2023-09-19T07:17:46;15.28;92.61
67275;DHT22;55463;52.324;5.122;2023-09-19T07:20:12;15.31;92.48
67275;DHT22;55463;52.324;5.122;2023-09-19T07:22:41;15.36;92.85
67275;DHT22;55463;52.324;5.122;2023-09-19T07:25:07;15.43;92.93
67275;DHT22;55463;52.324;5.122;2023-09-19T07:27:33;15.50;92.43
67275;DHT22;55463;52.324;5.122;2023-09-19T07:29:59;15.55;92.28
67275;DHT22;55463;52.324;5.122;2023-09-19T07:32:24;15.60;92.32
67275;DHT22;55463;52.324;5.122;2023-09-19T07:34:49;15.70;92.05
67275;DHT22;55463;52.324;5.122;2023-09-19T07:37:15;15.84;91.99
67275;DHT22;55463;52.324;5.122;2023-09-19T07:39:41;15.90;91.87
67275;DHT22;55463;52.324;5.122;2023-09-19T07:42:07;15.97;91.72
67275;DHT22;55463;52.324;5.122;2023-09-19T07:44:32;16.12;91.41
67275;DHT22;55463;52.324;5.122;2023-09-19T07:46:58;16.28;90.75
67275;DHT22;55463;52.324;5.122;2023-09-19T07:49:23;16.38;90.70
67275;DHT22;55463;52.324;5.122;2023-09-19T07:51:49;16.52;90.33
67275;DHT22;55463;52.324;5.122;2023-09-19T07:54:14;16.63;89.71
67275;DHT22;55463;52.324;5.122;2023-09-19T07:56:40;16.79;89.78
67275;DHT22;55463;52.324;5.122;2023-09-19T07:59:06;17.11;89.43
67275;DHT22;55463;52.324;5.122;2023-09-19T08:01:31;17.21;88.02
67275;DHT22;55463;52.324;5.122;2023-09-19T08:03:58;17.39;88.00
67275;DHT22;55463;52.324;5.122;2023-09-19T08:06:24;17.45;87.40
67275;DHT22;55463;52.324;5.122;2023-09-19T08:08:52;17.61;86.70
67275;DHT22;55463;52.324;5.122;2023-09-19T08:11:19;17.84;86.43
67275;DHT22;55463;52.324;5.122;2023-09-19T08:13:46;17.89;85.79
67275;DHT22;55463;52.324;5.122;2023-09-19T08:16:14;17.80;85.57
67275;DHT22;55463;52.324;5.122;2023-09-19T08:18:40;17.83;85.98
67275;DHT22;55463;52.324;5.122;2023-09-19T08:21:06;17.79;86.04
67275;DHT22;55463;52.324;5.122;2023-09-19T08:23:37;17.87;86.05
67275;DHT22;55463;52.324;5.122;2023-09-19T08:26:03;17.86;85.99
67275;DHT22;55463;52.324;5.122;2023-09-19T08:28:32;18.01;86.20
67275;DHT22;55463;52.324;5.122;2023-09-19T08:31:04;17.94;85.95
67275;DHT22;55463;52.324;5.122;2023-09-19T08:33:34;17.94;86.29
67275;DHT22;55463;52.324;5.122;2023-09-19T08:36:03;17.82;85.78
67275;DHT22;55463;52.324;5.122;2023-09-19T08:38:31;17.84;86.04
67275;DHT22;55463;52.324;5.122;2023-09-19T08:41:05;18.01;86.16
67275;DHT22;55463;52.324;5.122;2023-09-19T08:43:30;18.12;85.87
67275;DHT22;55463;52.324;5.122;2023-09-19T08:46:19;18.14;86.09
67275;DHT22;55463;52.324;5.122;2023-09-19T08:48:51;18.31;86.20
67275;DHT22;55463;52.324;5.122;2023-09-19T08:51:42;18.59;85.27
67275;DHT22;55463;52.324;5.122;2023-09-19T08:54:24;18.84;84.95
67275;DHT22;55463;52.324;5.122;2023-09-19T08:56:53;19.11;83.98
67275;DHT22;55463;52.324;5.122;2023-09-19T08:59:21;19.01;82.42
67275;DHT22;55463;52.324;5.122;2023-09-19T09:01:49;19.03;83.09
67275;DHT22;55463;52.324;5.122;2023-09-19T09:04:18;18.94;82.80
67275;DHT22;55463;52.324;5.122;2023-09-19T09:06:44;18.93;82.78
67275;DHT22;55463;52.324;5.122;2023-09-19T09:09:11;19.08;82.88
67275;DHT22;55463;52.324;5.122;2023-09-19T09:11:38;19.31;82.65
67275;DHT22;55463;52.324;5.122;2023-09-19T09:14:06;19.24;82.26
67275;DHT22;55463;52.324;5.122;2023-09-19T09:16:32;18.86;82.30
67275;DHT22;55463;52.324;5.122;2023-09-19T09:18:58;18.45;82.74
67275;DHT22;55463;52.324;5.122;2023-09-19T09:21:27;18.28;83.51
67275;DHT22;55463;52.324;5.122;2023-09-19T09:23:53;18.28;84.21
67275;DHT22;55463;52.324;5.122;2023-09-19T09:26:40;18.19;83.70
67275;DHT22;55463;52.324;5.122;2023-09-19T09:29:06;18.15;84.11
67275;DHT22;55463;52.324;5.122;2023-09-19T09:31:31;18.12;84.14
67275;DHT22;55463;52.324;5.122;2023-09-19T09:33:57;18.07;84.62
67275;DHT22;55463;52.324;5.122;2023-09-19T09:36:38;18.01;85.47
67275;DHT22;55463;52.324;5.122;2023-09-19T09:39:04;17.79;84.94
67275;DHT22;55463;52.324;5.122;2023-09-19T09:41:41;17.63;85.75
67275;DHT22;55463;52.324;5.122;2023-09-19T09:44:15;17.56;86.25
67275;DHT22;55463;52.324;5.122;2023-09-19T09:46:44;17.80;87.40
67275;DHT22;55463;52.324;5.122;2023-09-19T09:49:23;17.96;85.26
67275;DHT22;55463;52.324;5.122;2023-09-19T09:52:06;17.96;84.92
67275;DHT22;55463;52.324;5.122;2023-09-19T09:54:34;17.91;85.08
67275;DHT22;55463;52.324;5.122;2023-09-19T09:57:06;18.00;85.70
67275;DHT22;55463;52.324;5.122;2023-09-19T10:02:30;18.38;84.32
67275;DHT22;55463;52.324;5.122;2023-09-19T10:05:19;18.25;83.59
67275;DHT22;55463;52.324;5.122;2023-09-19T10:07:54;18.15;84.13
67275;DHT22;55463;52.324;5.122;2023-09-19T10:13:07;18.27;84.62
67275;DHT22;55463;52.324;5.122;2023-09-19T10:15:37;18.39;84.04
67275;DHT22;55463;52.324;5.122;2023-09-19T10:18:07;18.67;83.87
67275;DHT22;55463;52.324;5.122;2023-09-19T10:20:36;18.76;83.08
67275;DHT22;55463;52.324;5.122;2023-09-19T10:23:08;19.17;84.25
67275;DHT22;55463;52.324;5.122;2023-09-19T10:25:40;19.70;81.24
67275;DHT22;55463;52.324;5.122;2023-09-19T10:28:07;20.04;80.02
67275;DHT22;55463;52.324;5.122;2023-09-19T10:30:37;19.65;79.29
67275;DHT22;55463;52.324;5.122;2023-09-19T10:33:09;19.83;80.80
67275;DHT22;55463;52.324;5.122;2023-09-19T10:35:38;20.20;80.23
67275;DHT22;55463;52.324;5.122;2023-09-19T10:38:06;20.11;78.67
67275;DHT22;55463;52.324;5.122;2023-09-19T10:40:34;20.00;79.89
67275;DHT22;55463;52.324;5.122;2023-09-19T10:43:04;19.70;79.89
67275;DHT22;55463;52.324;5.122;2023-09-19T10:45:31;19.59;80.60
67275;DHT22;55463;52.324;5.122;2023-09-19T10:47:58;19.49;80.03
67275;DHT22;55463;52.324;5.122;2023-09-19T10:50:23;19.56;80.48
67275;DHT22;55463;52.324;5.122;2023-09-19T10:52:50;19.74;80.66
67275;DHT22;55463;52.324;5.122;2023-09-19T10:55:25;19.65;80.13
67275;DHT22;55463;52.324;5.122;2023-09-19T10:57:53;19.62;81.00
67275;DHT22;55463;52.324;5.122;2023-09-19T11:00:19;19.49;80.08
67275;DHT22;55463;52.324;5.122;2023-09-19T11:05:34;19.36;80.61
67275;DHT22;55463;52.324;5.122;2023-09-19T11:08:00;19.25;79.93
67275;DHT22;55463;52.324;5.122;2023-09-19T11:10:48;19.26;80.53
67275;DHT22;55463;52.324;5.122;2023-09-19T11:13:31;19.44;81.45
67275;DHT22;55463;52.324;5.122;2023-09-19T11:26:42;19.72;79.81
67275;DHT22;55463;52.324;5.122;2023-09-19T11:29:30;19.93;80.58
67275;DHT22;55463;52.324;5.122;2023-09-19T11:31:59;19.93;79.88
67275;DHT22;55463;52.324;5.122;2023-09-19T11:37:17;19.79;79.57
67275;DHT22;55463;52.324;5.122;2023-09-19T11:40:08;19.53;79.97
67275;DHT22;55463;52.324;5.122;2023-09-19T11:42:48;19.53;80.77
67275;DHT22;55463;52.324;5.122;2023-09-19T11:48:23;19.46;80.65
67275;DHT22;55463;52.324;5.122;2023-09-19T11:50:51;19.38;80.96
67275;DHT22;55463;52.324;5.122;2023-09-19T11:53:18;19.29;81.04
67275;DHT22;55463;52.324;5.122;2023-09-19T11:55:45;19.25;81.29
67275;DHT22;55463;52.324;5.122;2023-09-19T11:58:12;19.11;81.52
67275;DHT22;55463;52.324;5.122;2023-09-19T12:00:39;19.03;81.44
67275;DHT22;55463;52.324;5.122;2023-09-19T12:03:10;18.96;81.94
67275;DHT22;55463;52.324;5.122;2023-09-19T12:05:37;18.93;82.57
67275;DHT22;55463;52.324;5.122;2023-09-19T12:08:03;18.77;82.53
67275;DHT22;55463;52.324;5.122;2023-09-19T12:10:32;18.76;82.62
67275;DHT22;55463;52.324;5.122;2023-09-19T12:12:58;18.74;82.42
67275;DHT22;55463;52.324;5.122;2023-09-19T12:15:27;18.77;82.51
67275;DHT22;55463;52.324;5.122;2023-09-19T12:17:59;18.73;82.65
67275;DHT22;55463;52.324;5.122;2023-09-19T12:20:24;18.72;83.30
67275;DHT22;55463;52.324;5.122;2023-09-19T12:22:50;18.64;83.20
67275;DHT22;55463;52.324;5.122;2023-09-19T12:25:16;18.63;83.22
67275;DHT22;55463;52.324;5.122;2023-09-19T12:27:49;18.60;83.69
67275;DHT22;55463;52.324;5.122;2023-09-19T12:30:18;18.51;83.38
67275;DHT22;55463;52.324;5.122;2023-09-19T12:32:45;18.53;83.45
67275;DHT22;55463;52.324;5.122;2023-09-19T12:35:30;18.62;83.78
67275;DHT22;55463;52.324;5.122;2023-09-19T12:38:02;18.73;83.24
67275;DHT22;55463;52.324;5.122;2023-09-19T12:40:29;18.86;83.39
67275;DHT22;55463;52.324;5.122;2023-09-19T12:42:58;18.93;82.91
67275;DHT22;55463;52.324;5.122;2023-09-19T12:45:25;19.01;83.19
67275;DHT22;55463;52.324;5.122;2023-09-19T12:48:22;19.12;83.03
67275;DHT22;55463;52.324;5.122;2023-09-19T12:53:44;19.10;82.50
67275;DHT22;55463;52.324;5.122;2023-09-19T12:56:18;19.06;82.82
67275;DHT22;55463;52.324;5.122;2023-09-19T13:01:21;19.10;82.93
67275;DHT22;55463;52.324;5.122;2023-09-19T13:04:14;19.15;82.94
67275;DHT22;55463;52.324;5.122;2023-09-19T13:06:44;19.12;83.09
67275;DHT22;55463;52.324;5.122;2023-09-19T13:09:12;19.06;83.17
67275;DHT22;55463;52.324;5.122;2023-09-19T13:11:40;19.04;83.22
67275;DHT22;55463;52.324;5.122;2023-09-19T13:17:02;19.07;82.86
67275;DHT22;55463;52.324;5.122;2023-09-19T13:19:44;19.14;83.36
67275;DHT22;55463;52.324;5.122;2023-09-19T13:22:42;19.10;82.67
67275;DHT22;55463;52.324;5.122;2023-09-19T13:25:09;19.14;83.05
67275;DHT22;55463;52.324;5.122;2023-09-19T13:27:40;19.07;83.48
67275;DHT22;55463;52.324;5.122;2023-09-19T13:30:07;19.00;83.18
67275;DHT22;55463;52.324;5.122;2023-09-19T13:32:32;18.96;83.14
67275;DHT22;55463;52.324;5.122;2023-09-19T13:34:59;18.87;83.74
67275;DHT22;55463;52.324;5.122;2023-09-19T13:37:24;18.79;83.48
67275;DHT22;55463;52.324;5.122;2023-09-19T13:39:51;18.77;83.40
67275;DHT22;55463;52.324;5.122;2023-09-19T13:42:17;18.73;84.13
67275;DHT22;55463;52.324;5.122;2023-09-19T13:44:43;18.69;84.42
67275;DHT22;55463;52.324;5.122;2023-09-19T13:47:09;18.59;84.90
67275;DHT22;55463;52.324;5.122;2023-09-19T13:49:36;18.45;85.45
67275;DHT22;55463;52.324;5.122;2023-09-19T13:52:02;18.44;86.45
67275;DHT22;55463;52.324;5.122;2023-09-19T13:54:32;18.41;86.88
67275;DHT22;55463;52.324;5.122;2023-09-19T13:56:57;18.38;86.84
67275;DHT22;55463;52.324;5.122;2023-09-19T13:59:23;18.36;86.39
67275;DHT22;55463;52.324;5.122;2023-09-19T14:01:49;18.31;86.52
67275;DHT22;55463;52.324;5.122;2023-09-19T14:04:16;18.32;86.69
67275;DHT22;55463;52.324;5.122;2023-09-19T14:06:42;18.29;86.85
67275;DHT22;55463;52.324;5.122;2023-09-19T14:09:08;18.32;86.81
67275;DHT22;55463;52.324;5.122;2023-09-19T14:11:33;18.34;86.94
67275;DHT22;55463;52.324;5.122;2023-09-19T14:13:59;18.36;86.80
67275;DHT22;55463;52.324;5.122;2023-09-19T14:16:25;18.36;87.37
67275;DHT22;55463;52.324;5.122;2023-09-19T14:18:55;18.35;86.43
67275;DHT22;55463;52.324;5.122;2023-09-19T14:21:20;18.38;86.52
67275;DHT22;55463;52.324;5.122;2023-09-19T14:23:46;18.35;87.04
67275;DHT22;55463;52.324;5.122;2023-09-19T14:26:11;18.34;87.36
67275;DHT22;55463;52.324;5.122;2023-09-19T14:28:37;18.34;87.44
67275;DHT22;55463;52.324;5.122;2023-09-19T14:31:08;18.24;88.04
67275;DHT22;55463;52.324;5.122;2023-09-19T14:33:33;18.18;88.53
67275;DHT22;55463;52.324;5.122;2023-09-19T14:36:03;18.12;88.75
67275;DHT22;55463;52.324;5.122;2023-09-19T14:38:30;18.05;89.34
67275;DHT22;55463;52.324;5.122;2023-09-19T14:40:59;17.97;89.67
67275;DHT22;55463;52.324;5.122;2023-09-19T14:43:25;17.86;90.00
67275;DHT22;55463;52.324;5.122;2023-09-19T14:45:50;17.69;90.90
67275;DHT22;55463;52.324;5.122;2023-09-19T14:48:16;17.69;91.40
67275;DHT22;55463;52.324;5.122;2023-09-19T14:50:42;17.56;91.99
67275;DHT22;55463;52.324;5.122;2023-09-19T14:53:09;17.43;92.91
67275;DHT22;55463;52.324;5.122;2023-09-19T14:55:38;17.38;93.24
67275;DHT22;55463;52.324;5.122;2023-09-19T14:58:06;17.29;93.49
67275;DHT22;55463;52.324;5.122;2023-09-19T15:00:32;17.32;93.95
67275;DHT22;55463;52.324;5.122;2023-09-19T15:02:59;17.28;93.90
67275;DHT22;55463;52.324;5.122;2023-09-19T15:05:24;17.22;94.10
67275;DHT22;55463;52.324;5.122;2023-09-19T15:07:50;17.21;94.05
67275;DHT22;55463;52.324;5.122;2023-09-19T15:10:15;17.27;94.10
67275;DHT22;55463;52.324;5.122;2023-09-19T15:12:41;17.28;94.13
67275;DHT22;55463;52.324;5.122;2023-09-19T15:15:07;17.29;93.67
67275;DHT22;55463;52.324;5.122;2023-09-19T15:17:35;17.28;93.58
67275;DHT22;55463;52.324;5.122;2023-09-19T15:20:00;17.28;93.66
67275;DHT22;55463;52.324;5.122;2023-09-19T15:22:27;17.31;93.26
67275;DHT22;55463;52.324;5.122;2023-09-19T15:24:52;17.36;93.29
67275;DHT22;55463;52.324;5.122;2023-09-19T15:27:18;17.39;92.44
67275;DHT22;55463;52.324;5.122;2023-09-19T15:29:45;17.46;91.53
67275;DHT22;55463;52.324;5.122;2023-09-19T15:32:11;17.50;91.31
67275;DHT22;55463;52.324;5.122;2023-09-19T15:34:36;17.55;90.45
67275;DHT22;55463;52.324;5.122;2023-09-19T15:37:02;17.56;90.55
67275;DHT22;55463;52.324;5.122;2023-09-19T15:39:30;17.50;90.92
67275;DHT22;55463;52.324;5.122;2023-09-19T15:41:58;17.52;90.81
67275;DHT22;55463;52.324;5.122;2023-09-19T15:44:24;17.49;91.37
67275;DHT22;55463;52.324;5.122;2023-09-19T15:46:52;17.46;90.99
67275;DHT22;55463;52.324;5.122;2023-09-19T15:49:17;17.50;91.03
67275;DHT22;55463;52.324;5.122;2023-09-19T15:51:43;17.56;90.30
67275;DHT22;55463;52.324;5.122;2023-09-19T15:54:18;17.62;90.03
67275;DHT22;55463;52.324;5.122;2023-09-19T15:56:44;17.66;89.59
67275;DHT22;55463;52.324;5.122;2023-09-19T15:59:11;17.69;89.44
67275;DHT22;55463;52.324;5.122;2023-09-19T16:01:41;17.74;89.04
67275;DHT22;55463;52.324;5.122;2023-09-19T16:04:07;17.77;88.97
67275;DHT22;55463;52.324;5.122;2023-09-19T16:06:37;17.80;88.56
67275;DHT22;55463;52.324;5.122;2023-09-19T16:09:03;17.77;89.48
67275;DHT22;55463;52.324;5.122;2023-09-19T16:11:32;17.76;89.76
67275;DHT22;55463;52.324;5.122;2023-09-19T16:13:57;17.72;90.09
67275;DHT22;55463;52.324;5.122;2023-09-19T16:16:25;17.67;90.39
67275;DHT22;55463;52.324;5.122;2023-09-19T16:18:57;17.63;90.47
67275;DHT22;55463;52.324;5.122;2023-09-19T16:21:26;17.57;90.99
67275;DHT22;55463;52.324;5.122;2023-09-19T16:23:52;17.55;91.31